createdAt,value
2022-08-21T07:19:35.935Z,24.40
2022-08-21T07:23:44.575Z,24.50
2022-08-21T07:27:48.266Z,24.60
2022-08-21T07:31:51.982Z,24.60
2022-08-21T07:40:13.680Z,24.90
2022-08-21T07:44:16.597Z,25.00
2022-08-21T07:48:19.489Z,25.30
2022-08-21T07:52:22.258Z,25.40
2022-08-21T07:56:24.998Z,25.50
2022-08-21T08:00:29.877Z,25.70
2022-08-21T08:04:32.733Z,26.10
2022-08-21T08:21:59.477Z,26.50
2022-08-21T08:26:04.799Z,26.70
2022-08-21T08:30:11.067Z,26.80
2022-08-21T08:34:23.507Z,26.90
2022-08-21T08:38:30.446Z,27.00
2022-08-21T08:42:37.022Z,27.00
2022-08-21T08:46:46.861Z,27.30
2022-08-21T08:50:56.177Z,27.50
2022-08-21T08:55:16.099Z,27.60
2022-08-21T08:59:28.892Z,27.80
2022-08-21T09:03:40.854Z,28.00
2022-08-21T09:07:53.335Z,28.10
2022-08-21T09:12:15.389Z,28.30
2022-08-21T09:16:29.849Z,28.30
2022-08-21T09:21:03.715Z,28.40
2022-08-21T09:25:32.031Z,28.60
2022-08-21T09:29:38.700Z,28.70
2022-08-21T09:33:42.058Z,28.80
2022-08-21T09:38:06.785Z,29.20
2022-08-21T09:42:11.503Z,29.30
2022-08-21T09:46:24.280Z,29.50
2022-08-21T09:50:28.764Z,29.90
2022-08-21T09:54:38.013Z,30.00
2022-08-21T09:58:45.844Z,30.10
2022-08-21T10:02:50.143Z,30.40
2022-08-21T10:06:53.240Z,30.80
2022-08-21T10:11:09.124Z,31.00
2022-08-21T10:15:23.954Z,31.20
2022-08-21T10:19:45.749Z,31.20
2022-08-21T10:24:04.980Z,31.10
2022-08-21T10:28:29.100Z,31.00
2022-08-21T10:33:05.319Z,31.00
2022-08-21T10:42:12.629Z,31.20
2022-08-21T10:46:38.676Z,31.40
2022-08-21T10:50:57.478Z,31.30
2022-08-21T10:55:15.867Z,31.50
2022-08-21T10:59:44.381Z,31.70
2022-08-21T11:03:54.955Z,31.60
2022-08-21T11:08:09.714Z,31.50
2022-08-21T11:12:25.719Z,31.90
2022-08-21T11:16:54.237Z,31.90
2022-08-21T11:21:06.482Z,32.00
2022-08-21T11:25:23.623Z,32.20
2022-08-21T11:29:33.137Z,32.40
2022-08-21T11:33:45.737Z,32.70
2022-08-21T11:38:00.089Z,32.50
2022-08-21T11:42:29.905Z,32.40
2022-08-21T11:46:47.622Z,32.50
2022-08-21T11:55:40.064Z,32.90
2022-08-21T11:59:47.031Z,33.00
2022-08-21T12:04:24.230Z,33.20
2022-08-21T12:08:41.544Z,33.20
2022-08-21T12:12:55.532Z,33.10
2022-08-21T12:17:07.139Z,33.10
2022-08-21T12:21:25.461Z,33.00
2022-08-21T12:26:11.901Z,32.90
2022-08-21T12:30:44.384Z,33.00
2022-08-21T12:35:25.019Z,32.90
2022-08-21T12:39:35.265Z,32.50
2022-08-21T12:43:48.803Z,32.20
2022-08-21T12:48:21.075Z,32.00
2022-08-21T12:52:39.194Z,31.90
2022-08-21T12:56:56.224Z,31.80
2022-08-21T13:01:32.391Z,31.80
2022-08-21T13:05:38.918Z,31.70
2022-08-21T13:09:59.131Z,31.50
2022-08-21T13:14:04.926Z,31.60
2022-08-21T13:18:08.050Z,31.50
2022-08-21T13:22:34.220Z,31.40
2022-08-21T13:26:38.075Z,31.20
2022-08-21T13:30:45.812Z,31.10
2022-08-21T13:34:48.918Z,31.00
2022-08-21T13:38:57.500Z,30.80
2022-08-21T13:43:01.885Z,30.70
2022-08-21T13:47:08.429Z,30.50
2022-08-21T13:51:11.757Z,30.30
2022-08-21T13:55:17.291Z,30.00
2022-08-21T13:59:36.896Z,29.90
2022-08-21T14:03:44.957Z,29.60
2022-08-21T14:07:48.828Z,29.30
2022-08-21T14:11:56.866Z,29.20
2022-08-21T14:16:03.630Z,29.00
2022-08-21T14:20:34.455Z,29.00
2022-08-21T14:29:10.630Z,28.40
2022-08-21T14:33:20.541Z,28.00
2022-08-21T14:37:24.439Z,27.80
2022-08-21T14:54:31.782Z,27.10
2022-08-21T14:58:38.675Z,27.00
2022-08-21T15:02:41.693Z,26.90
2022-08-21T15:06:45.154Z,26.80
2022-08-21T15:11:11.182Z,26.80
2022-08-21T15:15:14.988Z,26.80
2022-08-21T15:19:21.179Z,26.80
2022-08-21T15:23:24.102Z,26.70
2022-08-21T15:27:26.834Z,26.80
2022-08-21T15:31:29.616Z,26.80
2022-08-21T15:35:32.509Z,26.90
2022-08-21T15:39:37.707Z,26.90
2022-08-21T15:43:47.522Z,26.90
2022-08-21T16:31:20.030Z,29.20
2022-08-21T16:35:23.128Z,29.30
2022-08-21T17:27:26.812Z,27.50
2022-08-21T17:31:30.589Z,27.40
2022-08-21T17:35:33.662Z,27.20
2022-08-21T17:39:37.856Z,27.60
2022-08-21T17:47:59.288Z,28.30
2022-08-21T17:52:02.154Z,28.00
2022-08-21T18:14:15.595Z,26.90
2022-08-21T18:27:01.910Z,26.10
2022-08-21T18:31:07.981Z,25.90
2022-08-21T18:35:15.942Z,25.70
2022-08-21T18:39:36.812Z,25.50
2022-08-21T18:43:44.602Z,25.40
2022-08-21T18:47:52.068Z,25.20
2022-08-21T18:51:55.644Z,25.00
2022-08-21T19:00:26.794Z,24.90
2022-08-21T19:18:29.681Z,25.00
2022-08-21T19:22:32.669Z,25.00
2022-08-21T21:42:44.274Z,23.10
